sensor_id;sensor_type;location;lat;lon;timestamp;P1;durP1;ratioP1;P2;durP2;ratioP2
12900;SDS011;6518;50.930;5.344;2023-03-16T00:01:03;5.43;;;4.80;;
12900;SDS011;6518;50.930;5.344;2023-03-16T00:03:31;7.63;;;5.13;;
12900;SDS011;6518;50.930;5.344;2023-03-16T00:05:59;7.33;;;5.03;;
12900;SDS011;6518;50.930;5.344;2023-03-16T00:08:26;7.40;;;5.03;;
12900;SDS011;6518;50.930;5.344;2023-03-16T00:10:53;9.43;;;4.80;;
12900;SDS011;6518;50.930;5.344;2023-03-16T00:13:21;7.17;;;4.80;;
12900;SDS011;6518;50.930;5.344;2023-03-16T00:15:49;8.10;;;5.20;;
12900;SDS011;6518;50.930;5.344;2023-03-16T00:18:17;7.90;;;5.00;;
12900;SDS011;6518;50.930;5.344;2023-03-16T00:20:48;7.00;;;4.87;;
12900;SDS011;6518;50.930;5.344;2023-03-16T00:23:17;7.63;;;4.70;;
12900;SDS011;6518;50.930;5.344;2023-03-16T00:25:51;7.80;;;5.27;;
12900;SDS011;6518;50.930;5.344;2023-03-16T00:28:19;7.37;;;4.60;;
12900;SDS011;6518;50.930;5.344;2023-03-16T00:30:46;6.07;;;4.70;;
12900;SDS011;6518;50.930;5.344;2023-03-16T00:33:13;8.43;;;4.63;;
12900;SDS011;6518;50.930;5.344;2023-03-16T00:35:40;6.50;;;4.67;;
12900;SDS011;6518;50.930;5.344;2023-03-16T00:38:13;5.07;;;4.27;;
12900;SDS011;6518;50.930;5.344;2023-03-16T00:40:42;5.77;;;4.43;;
12900;SDS011;6518;50.930;5.344;2023-03-16T00:43:09;4.83;;;4.27;;
12900;SDS011;6518;50.930;5.344;2023-03-16T00:45:35;6.00;;;4.50;;
12900;SDS011;6518;50.930;5.344;2023-03-16T00:48:02;7.60;;;4.30;;
12900;SDS011;6518;50.930;5.344;2023-03-16T00:50:29;7.00;;;4.70;;
12900;SDS011;6518;50.930;5.344;2023-03-16T00:52:57;5.50;;;4.23;;
12900;SDS011;6518;50.930;5.344;2023-03-16T00:55:23;6.53;;;4.70;;
12900;SDS011;6518;50.930;5.344;2023-03-16T00:57:52;4.93;;;4.17;;
12900;SDS011;6518;50.930;5.344;2023-03-16T01:00:19;6.70;;;4.57;;
12900;SDS011;6518;50.930;5.344;2023-03-16T01:02:49;6.40;;;4.33;;
12900;SDS011;6518;50.930;5.344;2023-03-16T01:05:16;7.33;;;4.80;;
12900;SDS011;6518;50.930;5.344;2023-03-16T01:07:43;6.60;;;4.27;;
12900;SDS011;6518;50.930;5.344;2023-03-16T01:10:10;5.80;;;4.20;;
12900;SDS011;6518;50.930;5.344;2023-03-16T01:12:37;7.03;;;4.33;;
12900;SDS011;6518;50.930;5.344;2023-03-16T01:15:06;5.47;;;4.00;;
12900;SDS011;6518;50.930;5.344;2023-03-16T01:17:34;6.80;;;4.17;;
12900;SDS011;6518;50.930;5.344;2023-03-16T01:20:01;5.23;;;4.10;;
12900;SDS011;6518;50.930;5.344;2023-03-16T01:22:32;4.67;;;3.80;;
12900;SDS011;6518;50.930;5.344;2023-03-16T01:24:58;5.93;;;3.90;;
12900;SDS011;6518;50.930;5.344;2023-03-16T01:27:25;9.60;;;4.10;;
12900;SDS011;6518;50.930;5.344;2023-03-16T01:29:52;5.57;;;3.40;;
12900;SDS011;6518;50.930;5.344;2023-03-16T01:32:20;8.23;;;4.23;;
12900;SDS011;6518;50.930;5.344;2023-03-16T01:34:47;6.57;;;4.00;;
12900;SDS011;6518;50.930;5.344;2023-03-16T01:37:13;5.40;;;3.70;;
12900;SDS011;6518;50.930;5.344;2023-03-16T01:39:40;5.63;;;3.50;;
12900;SDS011;6518;50.930;5.344;2023-03-16T01:42:07;5.43;;;3.43;;
12900;SDS011;6518;50.930;5.344;2023-03-16T01:47:27;5.67;;;3.90;;
12900;SDS011;6518;50.930;5.344;2023-03-16T01:49:54;5.20;;;3.10;;
12900;SDS011;6518;50.930;5.344;2023-03-16T01:52:23;5.57;;;3.17;;
12900;SDS011;6518;50.930;5.344;2023-03-16T01:54:53;6.23;;;3.07;;
12900;SDS011;6518;50.930;5.344;2023-03-16T01:57:24;4.87;;;3.50;;
12900;SDS011;6518;50.930;5.344;2023-03-16T01:59:55;4.77;;;3.27;;
12900;SDS011;6518;50.930;5.344;2023-03-16T02:02:45;8.87;;;3.50;;
12900;SDS011;6518;50.930;5.344;2023-03-16T02:05:15;4.57;;;3.20;;
12900;SDS011;6518;50.930;5.344;2023-03-16T02:07:48;3.77;;;3.27;;
12900;SDS011;6518;50.930;5.344;2023-03-16T02:10:17;4.57;;;2.90;;
12900;SDS011;6518;50.930;5.344;2023-03-16T02:12:45;4.53;;;3.37;;
12900;SDS011;6518;50.930;5.344;2023-03-16T02:15:12;4.10;;;3.27;;
12900;SDS011;6518;50.930;5.344;2023-03-16T02:17:40;3.60;;;2.90;;
12900;SDS011;6518;50.930;5.344;2023-03-16T02:20:13;5.17;;;3.20;;
12900;SDS011;6518;50.930;5.344;2023-03-16T02:22:50;6.40;;;3.47;;
12900;SDS011;6518;50.930;5.344;2023-03-16T02:25:20;6.00;;;3.17;;
12900;SDS011;6518;50.930;5.344;2023-03-16T02:27:50;5.43;;;3.10;;
12900;SDS011;6518;50.930;5.344;2023-03-16T02:30:24;3.73;;;2.87;;
12900;SDS011;6518;50.930;5.344;2023-03-16T02:32:52;6.30;;;3.20;;
12900;SDS011;6518;50.930;5.344;2023-03-16T02:35:20;5.27;;;3.27;;
12900;SDS011;6518;50.930;5.344;2023-03-16T02:37:47;4.63;;;2.77;;
12900;SDS011;6518;50.930;5.344;2023-03-16T02:40:18;5.27;;;3.30;;
12900;SDS011;6518;50.930;5.344;2023-03-16T02:42:47;3.70;;;2.70;;
12900;SDS011;6518;50.930;5.344;2023-03-16T02:45:19;7.37;;;2.97;;
12900;SDS011;6518;50.930;5.344;2023-03-16T02:47:48;5.30;;;2.90;;
12900;SDS011;6518;50.930;5.344;2023-03-16T02:50:17;3.20;;;2.90;;
12900;SDS011;6518;50.930;5.344;2023-03-16T02:52:44;6.30;;;3.00;;
12900;SDS011;6518;50.930;5.344;2023-03-16T02:55:12;5.30;;;3.03;;
12900;SDS011;6518;50.930;5.344;2023-03-16T02:57:39;6.43;;;2.80;;
12900;SDS011;6518;50.930;5.344;2023-03-16T03:00:07;5.20;;;3.10;;
12900;SDS011;6518;50.930;5.344;2023-03-16T03:02:41;6.37;;;2.90;;
12900;SDS011;6518;50.930;5.344;2023-03-16T03:05:09;5.90;;;3.20;;
12900;SDS011;6518;50.930;5.344;2023-03-16T03:07:36;5.63;;;2.97;;
12900;SDS011;6518;50.930;5.344;2023-03-16T03:10:03;5.77;;;3.00;;
12900;SDS011;6518;50.930;5.344;2023-03-16T03:12:31;5.67;;;2.60;;
12900;SDS011;6518;50.930;5.344;2023-03-16T03:14:57;5.50;;;3.27;;
12900;SDS011;6518;50.930;5.344;2023-03-16T03:17:25;6.07;;;2.70;;
12900;SDS011;6518;50.930;5.344;2023-03-16T03:19:54;7.50;;;2.70;;
12900;SDS011;6518;50.930;5.344;2023-03-16T03:22:23;4.23;;;2.83;;
12900;SDS011;6518;50.930;5.344;2023-03-16T03:24:50;13.60;;;3.27;;
12900;SDS011;6518;50.930;5.344;2023-03-16T03:27:17;6.03;;;3.03;;
12900;SDS011;6518;50.930;5.344;2023-03-16T03:29:46;3.63;;;2.77;;
12900;SDS011;6518;50.930;5.344;2023-03-16T03:32:13;5.80;;;2.90;;
12900;SDS011;6518;50.930;5.344;2023-03-16T03:34:40;5.00;;;2.63;;
12900;SDS011;6518;50.930;5.344;2023-03-16T03:37:07;6.53;;;2.97;;
12900;SDS011;6518;50.930;5.344;2023-03-16T03:39:35;7.93;;;3.13;;
12900;SDS011;6518;50.930;5.344;2023-03-16T03:42:04;3.60;;;2.83;;
12900;SDS011;6518;50.930;5.344;2023-03-16T03:44:31;5.80;;;3.20;;
12900;SDS011;6518;50.930;5.344;2023-03-16T03:46:59;6.07;;;3.33;;
12900;SDS011;6518;50.930;5.344;2023-03-16T03:49:26;4.23;;;2.60;;
12900;SDS011;6518;50.930;5.344;2023-03-16T03:51:53;4.07;;;2.90;;
12900;SDS011;6518;50.930;5.344;2023-03-16T03:54:23;5.60;;;3.07;;
12900;SDS011;6518;50.930;5.344;2023-03-16T03:56:51;8.93;;;3.40;;
12900;SDS011;6518;50.930;5.344;2023-03-16T03:59:18;5.17;;;2.83;;
12900;SDS011;6518;50.930;5.344;2023-03-16T04:01:46;4.60;;;2.80;;
12900;SDS011;6518;50.930;5.344;2023-03-16T04:04:14;5.40;;;2.73;;
12900;SDS011;6518;50.930;5.344;2023-03-16T04:06:41;4.27;;;2.97;;
12900;SDS011;6518;50.930;5.344;2023-03-16T04:09:07;4.40;;;2.90;;
12900;SDS011;6518;50.930;5.344;2023-03-16T04:11:35;4.47;;;3.03;;
12900;SDS011;6518;50.930;5.344;2023-03-16T04:14:03;4.40;;;2.90;;
12900;SDS011;6518;50.930;5.344;2023-03-16T04:16:30;6.20;;;3.20;;
12900;SDS011;6518;50.930;5.344;2023-03-16T04:18:58;5.07;;;3.07;;
12900;SDS011;6518;50.930;5.344;2023-03-16T04:21:25;7.57;;;3.30;;
12900;SDS011;6518;50.930;5.344;2023-03-16T04:23:52;8.27;;;3.67;;
12900;SDS011;6518;50.930;5.344;2023-03-16T04:26:19;7.90;;;3.63;;
12900;SDS011;6518;50.930;5.344;2023-03-16T04:28:48;7.47;;;3.33;;
12900;SDS011;6518;50.930;5.344;2023-03-16T04:31:16;7.60;;;3.60;;
12900;SDS011;6518;50.930;5.344;2023-03-16T04:33:42;4.07;;;3.27;;
12900;SDS011;6518;50.930;5.344;2023-03-16T04:36:09;5.17;;;3.60;;
12900;SDS011;6518;50.930;5.344;2023-03-16T04:38:36;5.53;;;3.20;;
12900;SDS011;6518;50.930;5.344;2023-03-16T04:41:03;7.07;;;3.53;;
12900;SDS011;6518;50.930;5.344;2023-03-16T04:43:31;4.03;;;2.97;;
12900;SDS011;6518;50.930;5.344;2023-03-16T04:45:59;4.23;;;3.07;;
12900;SDS011;6518;50.930;5.344;2023-03-16T04:48:28;5.23;;;3.20;;
12900;SDS011;6518;50.930;5.344;2023-03-16T04:50:56;6.73;;;3.40;;
12900;SDS011;6518;50.930;5.344;2023-03-16T04:53:23;6.80;;;3.33;;
12900;SDS011;6518;50.930;5.344;2023-03-16T04:55:49;4.87;;;3.10;;
12900;SDS011;6518;50.930;5.344;2023-03-16T04:58:16;5.43;;;3.00;;
12900;SDS011;6518;50.930;5.344;2023-03-16T05:00:43;4.53;;;2.97;;
12900;SDS011;6518;50.930;5.344;2023-03-16T05:03:10;5.67;;;3.13;;
12900;SDS011;6518;50.930;5.344;2023-03-16T05:05:39;4.47;;;3.00;;
12900;SDS011;6518;50.930;5.344;2023-03-16T05:08:06;9.07;;;3.57;;
12900;SDS011;6518;50.930;5.344;2023-03-16T05:10:35;5.73;;;3.13;;
12900;SDS011;6518;50.930;5.344;2023-03-16T05:13:02;5.57;;;3.17;;
12900;SDS011;6518;50.930;5.344;2023-03-16T05:15:29;4.73;;;3.30;;
12900;SDS011;6518;50.930;5.344;2023-03-16T05:17:56;9.30;;;3.53;;
12900;SDS011;6518;50.930;5.344;2023-03-16T05:20:23;5.87;;;3.23;;
12900;SDS011;6518;50.930;5.344;2023-03-16T05:22:51;5.20;;;3.30;;
12900;SDS011;6518;50.930;5.344;2023-03-16T05:25:18;8.13;;;3.53;;
12900;SDS011;6518;50.930;5.344;2023-03-16T05:27:47;5.57;;;3.10;;
12900;SDS011;6518;50.930;5.344;2023-03-16T05:30:15;6.40;;;3.30;;
12900;SDS011;6518;50.930;5.344;2023-03-16T05:32:44;5.77;;;3.10;;
12900;SDS011;6518;50.930;5.344;2023-03-16T05:35:11;6.60;;;3.30;;
12900;SDS011;6518;50.930;5.344;2023-03-16T05:37:38;7.83;;;3.50;;
12900;SDS011;6518;50.930;5.344;2023-03-16T05:40:07;6.23;;;3.53;;
12900;SDS011;6518;50.930;5.344;2023-03-16T05:42:41;5.90;;;3.43;;
12900;SDS011;6518;50.930;5.344;2023-03-16T05:45:08;5.57;;;3.30;;
12900;SDS011;6518;50.930;5.344;2023-03-16T05:47:36;8.10;;;3.47;;
12900;SDS011;6518;50.930;5.344;2023-03-16T05:50:03;7.50;;;3.30;;
12900;SDS011;6518;50.930;5.344;2023-03-16T05:52:30;5.80;;;3.40;;
12900;SDS011;6518;50.930;5.344;2023-03-16T05:54:58;5.60;;;3.40;;
12900;SDS011;6518;50.930;5.344;2023-03-16T05:57:26;6.13;;;3.30;;
12900;SDS011;6518;50.930;5.344;2023-03-16T05:59:53;7.17;;;3.83;;
12900;SDS011;6518;50.930;5.344;2023-03-16T06:02:19;5.07;;;2.90;;
12900;SDS011;6518;50.930;5.344;2023-03-16T06:04:46;7.57;;;3.20;;
12900;SDS011;6518;50.930;5.344;2023-03-16T06:07:13;5.13;;;2.93;;
12900;SDS011;6518;50.930;5.344;2023-03-16T06:09:40;6.53;;;3.07;;
12900;SDS011;6518;50.930;5.344;2023-03-16T06:12:06;8.40;;;3.20;;
12900;SDS011;6518;50.930;5.344;2023-03-16T06:14:35;6.60;;;3.23;;
12900;SDS011;6518;50.930;5.344;2023-03-16T06:17:02;4.47;;;3.03;;
12900;SDS011;6518;50.930;5.344;2023-03-16T06:19:29;6.20;;;3.43;;
12900;SDS011;6518;50.930;5.344;2023-03-16T06:21:55;6.63;;;3.07;;
12900;SDS011;6518;50.930;5.344;2023-03-16T06:24:22;5.97;;;3.20;;
12900;SDS011;6518;50.930;5.344;2023-03-16T06:26:49;4.67;;;3.00;;
12900;SDS011;6518;50.930;5.344;2023-03-16T06:29:16;6.60;;;3.03;;
12900;SDS011;6518;50.930;5.344;2023-03-16T06:31:44;4.67;;;2.70;;
12900;SDS011;6518;50.930;5.344;2023-03-16T06:34:11;4.23;;;2.80;;
12900;SDS011;6518;50.930;5.344;2023-03-16T06:36:38;6.33;;;2.73;;
12900;SDS011;6518;50.930;5.344;2023-03-16T06:39:05;6.27;;;3.03;;
12900;SDS011;6518;50.930;5.344;2023-03-16T06:41:31;6.50;;;3.63;;
12900;SDS011;6518;50.930;5.344;2023-03-16T06:43:59;4.33;;;2.50;;
12900;SDS011;6518;50.930;5.344;2023-03-16T06:46:27;5.97;;;2.77;;
12900;SDS011;6518;50.930;5.344;2023-03-16T06:48:55;3.23;;;2.50;;
12900;SDS011;6518;50.930;5.344;2023-03-16T06:51:22;7.13;;;2.90;;
12900;SDS011;6518;50.930;5.344;2023-03-16T06:53:48;4.67;;;2.90;;
12900;SDS011;6518;50.930;5.344;2023-03-16T06:56:15;5.07;;;2.90;;
12900;SDS011;6518;50.930;5.344;2023-03-16T06:58:42;9.03;;;2.40;;
12900;SDS011;6518;50.930;5.344;2023-03-16T07:01:09;4.23;;;2.50;;
12900;SDS011;6518;50.930;5.344;2023-03-16T07:03:36;5.10;;;3.00;;
12900;SDS011;6518;50.930;5.344;2023-03-16T07:06:05;7.33;;;2.80;;
12900;SDS011;6518;50.930;5.344;2023-03-16T07:08:32;7.20;;;2.73;;
12900;SDS011;6518;50.930;5.344;2023-03-16T07:10:59;5.70;;;2.30;;
12900;SDS011;6518;50.930;5.344;2023-03-16T07:13:26;7.40;;;2.97;;
12900;SDS011;6518;50.930;5.344;2023-03-16T07:15:53;5.13;;;2.73;;
12900;SDS011;6518;50.930;5.344;2023-03-16T07:18:20;7.60;;;3.07;;
12900;SDS011;6518;50.930;5.344;2023-03-16T07:20:46;5.40;;;2.70;;
12900;SDS011;6518;50.930;5.344;2023-03-16T07:23:15;4.13;;;2.40;;
12900;SDS011;6518;50.930;5.344;2023-03-16T07:25:41;3.10;;;2.20;;
12900;SDS011;6518;50.930;5.344;2023-03-16T07:28:08;6.77;;;2.60;;
12900;SDS011;6518;50.930;5.344;2023-03-16T07:30:35;4.73;;;2.23;;
12900;SDS011;6518;50.930;5.344;2023-03-16T07:33:02;4.53;;;2.40;;
12900;SDS011;6518;50.930;5.344;2023-03-16T07:35:30;4.80;;;2.00;;
12900;SDS011;6518;50.930;5.344;2023-03-16T07:37:57;5.30;;;2.53;;
12900;SDS011;6518;50.930;5.344;2023-03-16T07:40:25;5.00;;;2.53;;
12900;SDS011;6518;50.930;5.344;2023-03-16T07:42:52;5.53;;;2.40;;
12900;SDS011;6518;50.930;5.344;2023-03-16T07:45:19;5.20;;;2.30;;
12900;SDS011;6518;50.930;5.344;2023-03-16T07:47:46;3.50;;;2.07;;
12900;SDS011;6518;50.930;5.344;2023-03-16T07:50:13;4.03;;;2.40;;
12900;SDS011;6518;50.930;5.344;2023-03-16T07:52:43;6.60;;;2.33;;
12900;SDS011;6518;50.930;5.344;2023-03-16T07:55:11;5.93;;;2.23;;
12900;SDS011;6518;50.930;5.344;2023-03-16T07:57:39;4.17;;;2.23;;
12900;SDS011;6518;50.930;5.344;2023-03-16T08:00:12;3.93;;;2.00;;
12900;SDS011;6518;50.930;5.344;2023-03-16T08:02:39;4.80;;;2.30;;
12900;SDS011;6518;50.930;5.344;2023-03-16T08:05:07;4.90;;;2.57;;
12900;SDS011;6518;50.930;5.344;2023-03-16T08:07:35;3.87;;;2.40;;
12900;SDS011;6518;50.930;5.344;2023-03-16T08:10:02;4.20;;;2.10;;
12900;SDS011;6518;50.930;5.344;2023-03-16T08:12:30;4.47;;;2.00;;
12900;SDS011;6518;50.930;5.344;2023-03-16T08:14:59;4.27;;;2.30;;
12900;SDS011;6518;50.930;5.344;2023-03-16T08:17:26;4.37;;;2.30;;
12900;SDS011;6518;50.930;5.344;2023-03-16T08:19:52;6.70;;;2.13;;
12900;SDS011;6518;50.930;5.344;2023-03-16T08:22:19;5.17;;;2.10;;
12900;SDS011;6518;50.930;5.344;2023-03-16T08:24:46;6.87;;;2.00;;
12900;SDS011;6518;50.930;5.344;2023-03-16T08:27:13;3.50;;;2.50;;
12900;SDS011;6518;50.930;5.344;2023-03-16T08:29:41;8.27;;;2.53;;
12900;SDS011;6518;50.930;5.344;2023-03-16T08:32:10;4.07;;;2.30;;
12900;SDS011;6518;50.930;5.344;2023-03-16T08:34:37;8.07;;;2.47;;
12900;SDS011;6518;50.930;5.344;2023-03-16T08:37:04;5.63;;;2.33;;
12900;SDS011;6518;50.930;5.344;2023-03-16T08:39:31;6.40;;;2.40;;
12900;SDS011;6518;50.930;5.344;2023-03-16T08:41:59;3.63;;;2.10;;
12900;SDS011;6518;50.930;5.344;2023-03-16T08:44:26;7.00;;;2.43;;
12900;SDS011;6518;50.930;5.344;2023-03-16T08:46:53;4.27;;;2.23;;
12900;SDS011;6518;50.930;5.344;2023-03-16T08:49:21;4.93;;;2.57;;
12900;SDS011;6518;50.930;5.344;2023-03-16T08:51:48;4.67;;;2.20;;
12900;SDS011;6518;50.930;5.344;2023-03-16T08:54:15;6.50;;;2.23;;
12900;SDS011;6518;50.930;5.344;2023-03-16T08:56:42;4.40;;;2.20;;
12900;SDS011;6518;50.930;5.344;2023-03-16T08:59:08;4.93;;;2.47;;
12900;SDS011;6518;50.930;5.344;2023-03-16T09:01:35;4.50;;;2.20;;
12900;SDS011;6518;50.930;5.344;2023-03-16T09:04:03;4.57;;;2.37;;
12900;SDS011;6518;50.930;5.344;2023-03-16T09:06:31;5.93;;;2.47;;
12900;SDS011;6518;50.930;5.344;2023-03-16T09:08:58;4.33;;;2.17;;
12900;SDS011;6518;50.930;5.344;2023-03-16T09:11:24;4.80;;;2.23;;
12900;SDS011;6518;50.930;5.344;2023-03-16T09:13:54;4.60;;;2.30;;
12900;SDS011;6518;50.930;5.344;2023-03-16T09:16:22;3.37;;;2.10;;
12900;SDS011;6518;50.930;5.344;2023-03-16T09:18:49;6.77;;;2.27;;
12900;SDS011;6518;50.930;5.344;2023-03-16T09:21:16;8.83;;;3.00;;
12900;SDS011;6518;50.930;5.344;2023-03-16T09:23:45;4.37;;;2.13;;
12900;SDS011;6518;50.930;5.344;2023-03-16T09:26:12;7.20;;;2.73;;
12900;SDS011;6518;50.930;5.344;2023-03-16T09:28:40;4.23;;;2.30;;
12900;SDS011;6518;50.930;5.344;2023-03-16T09:31:07;7.57;;;2.63;;
12900;SDS011;6518;50.930;5.344;2023-03-16T09:33:35;6.27;;;2.70;;
12900;SDS011;6518;50.930;5.344;2023-03-16T09:36:02;6.53;;;2.30;;
12900;SDS011;6518;50.930;5.344;2023-03-16T09:38:29;4.13;;;2.33;;
12900;SDS011;6518;50.930;5.344;2023-03-16T09:40:59;5.87;;;2.60;;
12900;SDS011;6518;50.930;5.344;2023-03-16T09:43:36;6.33;;;3.10;;
12900;SDS011;6518;50.930;5.344;2023-03-16T09:46:14;5.43;;;2.20;;
12900;SDS011;6518;50.930;5.344;2023-03-16T09:48:50;5.57;;;2.70;;
12900;SDS011;6518;50.930;5.344;2023-03-16T09:51:17;4.27;;;2.67;;
12900;SDS011;6518;50.930;5.344;2023-03-16T09:53:48;4.70;;;2.47;;
12900;SDS011;6518;50.930;5.344;2023-03-16T09:56:25;5.27;;;2.40;;
12900;SDS011;6518;50.930;5.344;2023-03-16T09:58:55;5.10;;;2.67;;
12900;SDS011;6518;50.930;5.344;2023-03-16T10:01:25;9.77;;;3.10;;
12900;SDS011;6518;50.930;5.344;2023-03-16T10:04:08;4.33;;;2.30;;
12900;SDS011;6518;50.930;5.344;2023-03-16T10:06:43;3.90;;;2.37;;
12900;SDS011;6518;50.930;5.344;2023-03-16T10:09:16;4.37;;;2.30;;
12900;SDS011;6518;50.930;5.344;2023-03-16T10:11:54;5.10;;;2.20;;
12900;SDS011;6518;50.930;5.344;2023-03-16T10:14:24;7.57;;;2.73;;
12900;SDS011;6518;50.930;5.344;2023-03-16T10:16:56;2.60;;;2.20;;
12900;SDS011;6518;50.930;5.344;2023-03-16T10:19:29;5.57;;;2.00;;
12900;SDS011;6518;50.930;5.344;2023-03-16T10:22:01;5.67;;;2.13;;
12900;SDS011;6518;50.930;5.344;2023-03-16T10:24:40;2.70;;;1.80;;
12900;SDS011;6518;50.930;5.344;2023-03-16T10:27:14;4.13;;;2.10;;
12900;SDS011;6518;50.930;5.344;2023-03-16T10:29:45;4.70;;;1.87;;
12900;SDS011;6518;50.930;5.344;2023-03-16T10:32:13;3.33;;;2.00;;
12900;SDS011;6518;50.930;5.344;2023-03-16T10:34:44;4.33;;;2.37;;
12900;SDS011;6518;50.930;5.344;2023-03-16T10:37:17;6.97;;;2.10;;
12900;SDS011;6518;50.930;5.344;2023-03-16T10:39:46;3.83;;;2.03;;
12900;SDS011;6518;50.930;5.344;2023-03-16T10:42:16;3.70;;;1.90;;
12900;SDS011;6518;50.930;5.344;2023-03-16T10:44:45;3.53;;;2.00;;
12900;SDS011;6518;50.930;5.344;2023-03-16T10:47:16;5.43;;;2.20;;
12900;SDS011;6518;50.930;5.344;2023-03-16T10:49:44;3.33;;;2.10;;
12900;SDS011;6518;50.930;5.344;2023-03-16T10:52:15;4.30;;;1.97;;
12900;SDS011;6518;50.930;5.344;2023-03-16T10:54:48;6.07;;;1.90;;
12900;SDS011;6518;50.930;5.344;2023-03-16T10:57:21;8.70;;;1.97;;
12900;SDS011;6518;50.930;5.344;2023-03-16T10:59:50;3.27;;;1.60;;
12900;SDS011;6518;50.930;5.344;2023-03-16T11:02:18;3.33;;;2.13;;
12900;SDS011;6518;50.930;5.344;2023-03-16T11:04:47;1.87;;;1.50;;
12900;SDS011;6518;50.930;5.344;2023-03-16T11:07:14;4.07;;;1.87;;
12900;SDS011;6518;50.930;5.344;2023-03-16T11:09:42;2.97;;;1.80;;
12900;SDS011;6518;50.930;5.344;2023-03-16T11:12:12;3.47;;;1.63;;
12900;SDS011;6518;50.930;5.344;2023-03-16T11:14:45;6.67;;;2.20;;
12900;SDS011;6518;50.930;5.344;2023-03-16T11:17:14;5.30;;;1.90;;
12900;SDS011;6518;50.930;5.344;2023-03-16T11:19:46;3.63;;;1.80;;
12900;SDS011;6518;50.930;5.344;2023-03-16T11:22:18;3.47;;;1.73;;
12900;SDS011;6518;50.930;5.344;2023-03-16T11:24:48;3.83;;;1.57;;
12900;SDS011;6518;50.930;5.344;2023-03-16T11:27:20;4.47;;;1.97;;
12900;SDS011;6518;50.930;5.344;2023-03-16T11:29:55;4.27;;;1.80;;
12900;SDS011;6518;50.930;5.344;2023-03-16T11:32:28;6.97;;;1.70;;
12900;SDS011;6518;50.930;5.344;2023-03-16T11:34:58;5.20;;;1.90;;
12900;SDS011;6518;50.930;5.344;2023-03-16T11:37:31;3.35;;;1.63;;
12900;SDS011;6518;50.930;5.344;2023-03-16T11:40:08;4.63;;;2.00;;
12900;SDS011;6518;50.930;5.344;2023-03-16T11:42:47;5.30;;;1.52;;
12900;SDS011;6518;50.930;5.344;2023-03-16T11:45:27;3.47;;;1.40;;
12900;SDS011;6518;50.930;5.344;2023-03-16T11:50:49;2.20;;;1.35;;
12900;SDS011;6518;50.930;5.344;2023-03-16T11:53:31;5.57;;;1.50;;
12900;SDS011;6518;50.930;5.344;2023-03-16T11:56:14;5.07;;;1.53;;
12900;SDS011;6518;50.930;5.344;2023-03-16T11:58:55;3.58;;;1.85;;
12900;SDS011;6518;50.930;5.344;2023-03-16T12:01:46;5.15;;;1.85;;
12900;SDS011;6518;50.930;5.344;2023-03-16T12:04:25;3.20;;;1.40;;
12900;SDS011;6518;50.930;5.344;2023-03-16T12:07:06;5.03;;;1.30;;
12900;SDS011;6518;50.930;5.344;2023-03-16T12:12:35;4.70;;;1.37;;
12900;SDS011;6518;50.930;5.344;2023-03-16T12:15:16;4.88;;;1.50;;
12900;SDS011;6518;50.930;5.344;2023-03-16T12:17:53;4.27;;;1.37;;
12900;SDS011;6518;50.930;5.344;2023-03-16T12:20:25;4.20;;;1.50;;
12900;SDS011;6518;50.930;5.344;2023-03-16T12:22:56;2.70;;;1.17;;
12900;SDS011;6518;50.930;5.344;2023-03-16T12:25:28;2.53;;;0.90;;
12900;SDS011;6518;50.930;5.344;2023-03-16T12:27:59;4.03;;;1.60;;
12900;SDS011;6518;50.930;5.344;2023-03-16T12:30:33;3.58;;;1.60;;
12900;SDS011;6518;50.930;5.344;2023-03-16T12:33:10;2.38;;;1.13;;
12900;SDS011;6518;50.930;5.344;2023-03-16T12:35:45;3.63;;;1.40;;
12900;SDS011;6518;50.930;5.344;2023-03-16T12:41:09;3.07;;;1.30;;
12900;SDS011;6518;50.930;5.344;2023-03-16T12:43:44;3.53;;;1.30;;
12900;SDS011;6518;50.930;5.344;2023-03-16T12:46:20;4.50;;;1.17;;
12900;SDS011;6518;50.930;5.344;2023-03-16T12:48:56;2.33;;;0.93;;
12900;SDS011;6518;50.930;5.344;2023-03-16T12:51:35;2.35;;;1.25;;
12900;SDS011;6518;50.930;5.344;2023-03-16T12:54:03;3.23;;;1.10;;
12900;SDS011;6518;50.930;5.344;2023-03-16T12:56:32;2.10;;;1.00;;
12900;SDS011;6518;50.930;5.344;2023-03-16T12:59:02;3.40;;;1.20;;
12900;SDS011;6518;50.930;5.344;2023-03-16T13:01:36;3.57;;;1.17;;
12900;SDS011;6518;50.930;5.344;2023-03-16T13:04:08;2.90;;;1.03;;
12900;SDS011;6518;50.930;5.344;2023-03-16T13:06:40;4.77;;;1.50;;
12900;SDS011;6518;50.930;5.344;2023-03-16T13:09:10;2.23;;;1.43;;
12900;SDS011;6518;50.930;5.344;2023-03-16T13:11:43;4.33;;;1.50;;
12900;SDS011;6518;50.930;5.344;2023-03-16T13:14:14;3.00;;;1.40;;
12900;SDS011;6518;50.930;5.344;2023-03-16T13:17:01;4.93;;;1.80;;
12900;SDS011;6518;50.930;5.344;2023-03-16T13:19:31;2.85;;;1.50;;
12900;SDS011;6518;50.930;5.344;2023-03-16T13:22:03;2.72;;;1.35;;
12900;SDS011;6518;50.930;5.344;2023-03-16T13:24:49;3.97;;;1.38;;
12900;SDS011;6518;50.930;5.344;2023-03-16T13:27:22;7.40;;;1.60;;
12900;SDS011;6518;50.930;5.344;2023-03-16T13:29:56;1.77;;;1.10;;
12900;SDS011;6518;50.930;5.344;2023-03-16T13:32:25;2.08;;;1.13;;
12900;SDS011;6518;50.930;5.344;2023-03-16T13:34:58;4.85;;;1.17;;
12900;SDS011;6518;50.930;5.344;2023-03-16T13:37:27;6.00;;;1.47;;
12900;SDS011;6518;50.930;5.344;2023-03-16T13:39:55;3.80;;;1.30;;
12900;SDS011;6518;50.930;5.344;2023-03-16T13:42:24;3.42;;;1.30;;
12900;SDS011;6518;50.930;5.344;2023-03-16T13:44:52;3.47;;;1.23;;
12900;SDS011;6518;50.930;5.344;2023-03-16T13:47:20;3.63;;;1.20;;
12900;SDS011;6518;50.930;5.344;2023-03-16T13:49:49;2.90;;;1.37;;
12900;SDS011;6518;50.930;5.344;2023-03-16T13:52:23;3.13;;;1.20;;
12900;SDS011;6518;50.930;5.344;2023-03-16T13:54:52;2.97;;;1.15;;
12900;SDS011;6518;50.930;5.344;2023-03-16T13:57:20;4.53;;;1.20;;
12900;SDS011;6518;50.930;5.344;2023-03-16T13:59:49;5.28;;;1.42;;
12900;SDS011;6518;50.930;5.344;2023-03-16T14:02:23;2.58;;;1.23;;
12900;SDS011;6518;50.930;5.344;2023-03-16T14:04:50;2.55;;;1.05;;
12900;SDS011;6518;50.930;5.344;2023-03-16T14:07:18;3.25;;;1.27;;
12900;SDS011;6518;50.930;5.344;2023-03-16T14:09:49;2.95;;;1.10;;
12900;SDS011;6518;50.930;5.344;2023-03-16T14:12:17;3.03;;;1.30;;
12900;SDS011;6518;50.930;5.344;2023-03-16T14:14:45;4.10;;;1.30;;
12900;SDS011;6518;50.930;5.344;2023-03-16T14:17:15;2.10;;;0.93;;
12900;SDS011;6518;50.930;5.344;2023-03-16T14:19:45;2.95;;;0.90;;
12900;SDS011;6518;50.930;5.344;2023-03-16T14:22:14;4.10;;;1.07;;
12900;SDS011;6518;50.930;5.344;2023-03-16T14:24:43;2.53;;;1.20;;
12900;SDS011;6518;50.930;5.344;2023-03-16T14:27:21;2.83;;;1.00;;
12900;SDS011;6518;50.930;5.344;2023-03-16T14:29:53;2.40;;;1.02;;
12900;SDS011;6518;50.930;5.344;2023-03-16T14:32:25;1.30;;;0.90;;
12900;SDS011;6518;50.930;5.344;2023-03-16T14:35:10;3.05;;;1.23;;
12900;SDS011;6518;50.930;5.344;2023-03-16T14:37:39;1.52;;;0.80;;
12900;SDS011;6518;50.930;5.344;2023-03-16T14:40:07;2.03;;;0.98;;
12900;SDS011;6518;50.930;5.344;2023-03-16T14:42:48;3.22;;;0.90;;
12900;SDS011;6518;50.930;5.344;2023-03-16T14:45:15;3.70;;;0.98;;
12900;SDS011;6518;50.930;5.344;2023-03-16T14:47:45;5.53;;;0.90;;
12900;SDS011;6518;50.930;5.344;2023-03-16T14:50:14;2.30;;;0.85;;
12900;SDS011;6518;50.930;5.344;2023-03-16T14:52:47;2.17;;;1.10;;
12900;SDS011;6518;50.930;5.344;2023-03-16T14:55:16;1.75;;;1.00;;
12900;SDS011;6518;50.930;5.344;2023-03-16T14:57:45;1.80;;;0.85;;
12900;SDS011;6518;50.930;5.344;2023-03-16T15:00:16;3.40;;;1.05;;
12900;SDS011;6518;50.930;5.344;2023-03-16T15:02:44;1.60;;;0.85;;
12900;SDS011;6518;50.930;5.344;2023-03-16T15:05:20;4.07;;;1.10;;
12900;SDS011;6518;50.930;5.344;2023-03-16T15:07:52;4.05;;;1.05;;
12900;SDS011;6518;50.930;5.344;2023-03-16T15:10:21;1.33;;;0.60;;
12900;SDS011;6518;50.930;5.344;2023-03-16T15:12:51;4.55;;;1.10;;
12900;SDS011;6518;50.930;5.344;2023-03-16T15:15:22;3.80;;;0.98;;
12900;SDS011;6518;50.930;5.344;2023-03-16T15:17:51;1.15;;;0.90;;
12900;SDS011;6518;50.930;5.344;2023-03-16T15:20:19;3.75;;;0.98;;
12900;SDS011;6518;50.930;5.344;2023-03-16T15:22:48;2.85;;;1.25;;
12900;SDS011;6518;50.930;5.344;2023-03-16T15:25:27;2.58;;;1.10;;